Impacts TAF Board
For situational awareness. Not to be used for flight planning purposes.
IDs:

KSAN - San Diego Intl Arpt, CA, US

Issued at 1738 UTC 22 Sep 2018
Updated at 1858 UTC 22 Sep 2018
Potential Impact None Slight Moderate High
Time<<23/07Z 23/08Z 23/09Z 23/10Z 23/11Z 23/12Z 23/13Z 23/14Z 23/15Z 23/16Z 23/17Z 23/18Z 23/19Z>>
Type PRVL PRVL PRVL PRVL PRVL PRVL PRVL PRVL PRVL PRVL PRVL PRVL PRVL
VIS >6 >6 >6 >6 >6 >6 >6 >6 >6 >6 >6 >6 >6
CIG -- 10 10 10 10 10 10 10 10 10 -- -- --
Cover SCT OVC OVC OVC OVC OVC OVC OVC OVC OVC SCT SCT SCT
FltCat VFR MVFR MVFR MVFR MVFR MVFR MVFR MVFR MVFR MVFR VFR VFR VFR
WX -- -- -- -- -- -- -- -- -- -- -- -- --
WDir 310 VRB VRB VRB VRB VRB VRB VRB VRB VRB 300 300 300
WSpd 5 4 4 4 4 4 4 4 4 4 6 6 6
WGst -- -- -- -- -- -- -- -- -- -- -- -- --
Raw TAF
KSAN 221738Z 2218/2324 30006KT P6SM FEW010
  FM221900 31010KT P6SM SKC
  FM230300 31005KT P6SM SCT011
  FM230800 VRB04KT P6SM OVC010
  FM231700 30006KT P6SM SCT012


METAR Board
Radar Display
Forecast Discussion
For situational awareness. Not to be used for flight planning purposes.